sensor_id;sensor_type;location;lat;lon;timestamp;P1;durP1;ratioP1;P2;durP2;ratioP2
8337;SDS011;4206;48.634;9.516;2023-04-15T00:00:54;4.33;;;2.40;;
8337;SDS011;4206;48.634;9.516;2023-04-15T00:03:22;5.90;;;2.13;;
8337;SDS011;4206;48.634;9.516;2023-04-15T00:05:50;3.60;;;1.60;;
8337;SDS011;4206;48.634;9.516;2023-04-15T00:08:17;5.00;;;2.37;;
8337;SDS011;4206;48.634;9.516;2023-04-15T00:10:44;4.07;;;2.00;;
8337;SDS011;4206;48.634;9.516;2023-04-15T00:13:12;3.80;;;2.03;;
8337;SDS011;4206;48.634;9.516;2023-04-15T00:15:39;4.43;;;2.50;;
8337;SDS011;4206;48.634;9.516;2023-04-15T00:18:06;4.87;;;2.50;;
8337;SDS011;4206;48.634;9.516;2023-04-15T00:20:33;6.93;;;1.83;;
8337;SDS011;4206;48.634;9.516;2023-04-15T00:23:01;4.50;;;2.10;;
8337;SDS011;4206;48.634;9.516;2023-04-15T00:25:29;3.33;;;1.80;;
8337;SDS011;4206;48.634;9.516;2023-04-15T00:27:56;5.80;;;3.10;;
8337;SDS011;4206;48.634;9.516;2023-04-15T00:30:23;4.73;;;1.70;;
8337;SDS011;4206;48.634;9.516;2023-04-15T00:32:51;5.23;;;1.93;;
8337;SDS011;4206;48.634;9.516;2023-04-15T00:35:18;5.13;;;2.03;;
8337;SDS011;4206;48.634;9.516;2023-04-15T00:37:45;2.00;;;1.60;;
8337;SDS011;4206;48.634;9.516;2023-04-15T00:40:12;3.40;;;1.70;;
8337;SDS011;4206;48.634;9.516;2023-04-15T00:42:42;4.27;;;1.93;;
8337;SDS011;4206;48.634;9.516;2023-04-15T00:45:09;3.23;;;1.80;;
8337;SDS011;4206;48.634;9.516;2023-04-15T00:47:37;6.73;;;1.87;;
8337;SDS011;4206;48.634;9.516;2023-04-15T00:50:07;3.47;;;1.60;;
8337;SDS011;4206;48.634;9.516;2023-04-15T00:52:34;4.50;;;2.10;;
8337;SDS011;4206;48.634;9.516;2023-04-15T00:55:01;6.53;;;2.10;;
8337;SDS011;4206;48.634;9.516;2023-04-15T00:57:30;3.97;;;2.00;;
8337;SDS011;4206;48.634;9.516;2023-04-15T00:59:57;4.30;;;1.57;;
8337;SDS011;4206;48.634;9.516;2023-04-15T01:02:25;3.73;;;1.83;;
8337;SDS011;4206;48.634;9.516;2023-04-15T01:04:53;3.47;;;2.10;;
8337;SDS011;4206;48.634;9.516;2023-04-15T01:07:21;4.50;;;1.70;;
8337;SDS011;4206;48.634;9.516;2023-04-15T01:09:48;3.50;;;1.90;;
8337;SDS011;4206;48.634;9.516;2023-04-15T01:12:15;2.87;;;2.13;;
8337;SDS011;4206;48.634;9.516;2023-04-15T01:14:42;5.53;;;2.03;;
8337;SDS011;4206;48.634;9.516;2023-04-15T01:17:09;3.60;;;2.23;;
8337;SDS011;4206;48.634;9.516;2023-04-15T01:19:36;6.57;;;2.90;;
8337;SDS011;4206;48.634;9.516;2023-04-15T01:22:03;4.20;;;2.47;;
8337;SDS011;4206;48.634;9.516;2023-04-15T01:24:31;4.53;;;2.33;;
8337;SDS011;4206;48.634;9.516;2023-04-15T01:26:59;4.40;;;3.00;;
8337;SDS011;4206;48.634;9.516;2023-04-15T01:29:26;6.73;;;2.10;;
8337;SDS011;4206;48.634;9.516;2023-04-15T01:31:54;4.50;;;2.63;;
8337;SDS011;4206;48.634;9.516;2023-04-15T01:34:22;5.30;;;2.63;;
8337;SDS011;4206;48.634;9.516;2023-04-15T01:36:49;4.60;;;2.03;;
8337;SDS011;4206;48.634;9.516;2023-04-15T01:39:16;2.77;;;1.93;;
8337;SDS011;4206;48.634;9.516;2023-04-15T01:41:43;2.53;;;1.63;;
8337;SDS011;4206;48.634;9.516;2023-04-15T01:44:10;4.10;;;1.90;;
8337;SDS011;4206;48.634;9.516;2023-04-15T01:46:37;5.70;;;2.00;;
8337;SDS011;4206;48.634;9.516;2023-04-15T01:49:04;2.57;;;1.67;;
8337;SDS011;4206;48.634;9.516;2023-04-15T01:51:31;4.27;;;1.57;;
8337;SDS011;4206;48.634;9.516;2023-04-15T01:53:58;6.03;;;2.47;;
8337;SDS011;4206;48.634;9.516;2023-04-15T01:56:25;3.77;;;1.97;;
8337;SDS011;4206;48.634;9.516;2023-04-15T01:58:52;3.17;;;2.13;;
8337;SDS011;4206;48.634;9.516;2023-04-15T02:01:19;2.43;;;1.63;;
8337;SDS011;4206;48.634;9.516;2023-04-15T02:03:47;3.33;;;2.00;;
8337;SDS011;4206;48.634;9.516;2023-04-15T02:06:14;6.10;;;2.50;;
8337;SDS011;4206;48.634;9.516;2023-04-15T02:08:41;4.77;;;2.37;;
8337;SDS011;4206;48.634;9.516;2023-04-15T02:11:08;3.70;;;2.03;;
8337;SDS011;4206;48.634;9.516;2023-04-15T02:13:35;5.60;;;2.20;;
8337;SDS011;4206;48.634;9.516;2023-04-15T02:16:02;8.00;;;2.50;;
8337;SDS011;4206;48.634;9.516;2023-04-15T02:18:29;6.00;;;2.73;;
8337;SDS011;4206;48.634;9.516;2023-04-15T02:20:56;2.87;;;1.83;;
8337;SDS011;4206;48.634;9.516;2023-04-15T02:23:24;4.00;;;2.33;;
8337;SDS011;4206;48.634;9.516;2023-04-15T02:25:51;3.70;;;2.30;;
8337;SDS011;4206;48.634;9.516;2023-04-15T02:28:20;4.43;;;1.90;;
8337;SDS011;4206;48.634;9.516;2023-04-15T02:30:47;4.47;;;1.67;;
8337;SDS011;4206;48.634;9.516;2023-04-15T02:33:18;2.93;;;2.37;;
8337;SDS011;4206;48.634;9.516;2023-04-15T02:35:45;2.47;;;1.77;;
8337;SDS011;4206;48.634;9.516;2023-04-15T02:38:12;5.03;;;2.47;;
8337;SDS011;4206;48.634;9.516;2023-04-15T02:40:42;5.10;;;2.13;;
8337;SDS011;4206;48.634;9.516;2023-04-15T02:43:09;4.73;;;2.50;;
8337;SDS011;4206;48.634;9.516;2023-04-15T02:45:36;4.57;;;2.10;;
8337;SDS011;4206;48.634;9.516;2023-04-15T02:48:02;3.17;;;2.17;;
8337;SDS011;4206;48.634;9.516;2023-04-15T02:50:31;3.43;;;1.83;;
8337;SDS011;4206;48.634;9.516;2023-04-15T02:52:58;6.47;;;2.07;;
8337;SDS011;4206;48.634;9.516;2023-04-15T02:55:27;3.13;;;1.73;;
8337;SDS011;4206;48.634;9.516;2023-04-15T02:57:54;3.27;;;2.00;;
8337;SDS011;4206;48.634;9.516;2023-04-15T04:00:56;4.07;;;2.23;;
8337;SDS011;4206;48.634;9.516;2023-04-15T04:03:23;5.70;;;2.10;;
8337;SDS011;4206;48.634;9.516;2023-04-15T04:05:50;2.70;;;2.13;;
8337;SDS011;4206;48.634;9.516;2023-04-15T04:08:17;3.37;;;2.53;;
8337;SDS011;4206;48.634;9.516;2023-04-15T04:10:44;3.23;;;1.93;;
8337;SDS011;4206;48.634;9.516;2023-04-15T04:13:11;4.17;;;1.80;;
8337;SDS011;4206;48.634;9.516;2023-04-15T04:15:39;5.70;;;2.13;;
8337;SDS011;4206;48.634;9.516;2023-04-15T04:18:06;3.77;;;1.70;;
8337;SDS011;4206;48.634;9.516;2023-04-15T04:20:33;3.77;;;2.03;;
8337;SDS011;4206;48.634;9.516;2023-04-15T04:23:00;6.47;;;2.07;;
8337;SDS011;4206;48.634;9.516;2023-04-15T04:25:27;2.17;;;2.00;;
8337;SDS011;4206;48.634;9.516;2023-04-15T04:27:54;6.37;;;2.20;;
8337;SDS011;4206;48.634;9.516;2023-04-15T04:30:20;2.63;;;1.80;;
8337;SDS011;4206;48.634;9.516;2023-04-15T04:32:48;5.37;;;1.70;;
8337;SDS011;4206;48.634;9.516;2023-04-15T04:35:16;2.20;;;1.97;;
8337;SDS011;4206;48.634;9.516;2023-04-15T04:37:42;6.80;;;2.10;;
8337;SDS011;4206;48.634;9.516;2023-04-15T04:40:09;4.10;;;1.67;;
8337;SDS011;4206;48.634;9.516;2023-04-15T04:42:37;3.43;;;1.80;;
8337;SDS011;4206;48.634;9.516;2023-04-15T04:45:05;3.60;;;2.37;;
8337;SDS011;4206;48.634;9.516;2023-04-15T04:47:32;5.33;;;1.97;;
8337;SDS011;4206;48.634;9.516;2023-04-15T04:49:59;2.00;;;1.80;;
8337;SDS011;4206;48.634;9.516;2023-04-15T04:52:26;7.67;;;2.87;;
8337;SDS011;4206;48.634;9.516;2023-04-15T04:54:53;6.63;;;3.80;;
8337;SDS011;4206;48.634;9.516;2023-04-15T04:57:19;3.20;;;2.53;;
8337;SDS011;4206;48.634;9.516;2023-04-15T04:59:46;2.77;;;1.83;;
8337;SDS011;4206;48.634;9.516;2023-04-15T05:02:13;6.40;;;2.47;;
8337;SDS011;4206;48.634;9.516;2023-04-15T05:04:40;3.93;;;2.60;;
8337;SDS011;4206;48.634;9.516;2023-04-15T05:07:07;2.33;;;2.10;;
8337;SDS011;4206;48.634;9.516;2023-04-15T05:09:34;4.90;;;2.57;;
8337;SDS011;4206;48.634;9.516;2023-04-15T05:12:03;4.27;;;2.90;;
8337;SDS011;4206;48.634;9.516;2023-04-15T05:14:30;2.30;;;1.93;;
8337;SDS011;4206;48.634;9.516;2023-04-15T05:16:57;7.27;;;2.60;;
8337;SDS011;4206;48.634;9.516;2023-04-15T05:19:24;9.67;;;6.50;;
8337;SDS011;4206;48.634;9.516;2023-04-15T05:21:51;10.77;;;6.50;;
8337;SDS011;4206;48.634;9.516;2023-04-15T05:24:17;8.50;;;4.47;;
8337;SDS011;4206;48.634;9.516;2023-04-15T05:26:44;7.13;;;3.40;;
8337;SDS011;4206;48.634;9.516;2023-04-15T05:29:11;7.93;;;3.97;;
8337;SDS011;4206;48.634;9.516;2023-04-15T05:31:38;5.47;;;3.40;;
8337;SDS011;4206;48.634;9.516;2023-04-15T05:34:05;4.77;;;2.73;;
8337;SDS011;4206;48.634;9.516;2023-04-15T05:36:32;7.73;;;4.03;;
8337;SDS011;4206;48.634;9.516;2023-04-15T05:38:59;9.90;;;4.70;;
8337;SDS011;4206;48.634;9.516;2023-04-15T05:41:27;9.77;;;3.90;;
8337;SDS011;4206;48.634;9.516;2023-04-15T05:43:54;9.13;;;5.50;;
8337;SDS011;4206;48.634;9.516;2023-04-15T05:46:21;9.17;;;5.50;;
8337;SDS011;4206;48.634;9.516;2023-04-15T05:48:48;19.97;;;7.47;;
8337;SDS011;4206;48.634;9.516;2023-04-15T05:51:15;18.67;;;7.87;;
8337;SDS011;4206;48.634;9.516;2023-04-15T05:53:42;15.77;;;6.87;;
8337;SDS011;4206;48.634;9.516;2023-04-15T05:56:11;11.50;;;5.70;;
8337;SDS011;4206;48.634;9.516;2023-04-15T05:58:38;13.00;;;6.00;;
8337;SDS011;4206;48.634;9.516;2023-04-15T06:01:05;9.10;;;5.20;;
8337;SDS011;4206;48.634;9.516;2023-04-15T06:03:32;9.23;;;5.43;;
8337;SDS011;4206;48.634;9.516;2023-04-15T06:05:59;10.23;;;4.90;;
8337;SDS011;4206;48.634;9.516;2023-04-15T06:08:27;8.43;;;4.27;;
8337;SDS011;4206;48.634;9.516;2023-04-15T06:10:54;5.00;;;4.03;;
8337;SDS011;4206;48.634;9.516;2023-04-15T06:13:21;3.83;;;3.17;;
8337;SDS011;4206;48.634;9.516;2023-04-15T06:15:48;7.40;;;4.23;;
8337;SDS011;4206;48.634;9.516;2023-04-15T06:18:15;7.80;;;4.00;;
8337;SDS011;4206;48.634;9.516;2023-04-15T06:20:41;4.90;;;3.50;;
8337;SDS011;4206;48.634;9.516;2023-04-15T06:23:08;9.10;;;3.97;;
8337;SDS011;4206;48.634;9.516;2023-04-15T06:25:35;9.00;;;4.30;;
8337;SDS011;4206;48.634;9.516;2023-04-15T06:28:02;10.50;;;4.33;;
8337;SDS011;4206;48.634;9.516;2023-04-15T06:30:29;10.13;;;4.80;;
8337;SDS011;4206;48.634;9.516;2023-04-15T06:32:56;8.83;;;3.67;;
8337;SDS011;4206;48.634;9.516;2023-04-15T06:35:23;6.80;;;3.40;;
8337;SDS011;4206;48.634;9.516;2023-04-15T06:37:50;11.60;;;4.00;;
8337;SDS011;4206;48.634;9.516;2023-04-15T06:40:16;6.10;;;4.23;;
8337;SDS011;4206;48.634;9.516;2023-04-15T06:42:43;8.00;;;5.40;;
8337;SDS011;4206;48.634;9.516;2023-04-15T06:45:10;7.13;;;4.40;;
8337;SDS011;4206;48.634;9.516;2023-04-15T06:47:37;7.00;;;3.67;;
8337;SDS011;4206;48.634;9.516;2023-04-15T06:50:04;6.80;;;3.37;;
8337;SDS011;4206;48.634;9.516;2023-04-15T06:52:31;7.87;;;4.20;;
8337;SDS011;4206;48.634;9.516;2023-04-15T06:54:58;10.30;;;3.83;;
8337;SDS011;4206;48.634;9.516;2023-04-15T06:57:26;10.20;;;4.10;;
8337;SDS011;4206;48.634;9.516;2023-04-15T06:59:53;5.63;;;3.00;;
8337;SDS011;4206;48.634;9.516;2023-04-15T07:02:21;5.37;;;3.43;;
8337;SDS011;4206;48.634;9.516;2023-04-15T07:04:48;9.80;;;4.10;;
8337;SDS011;4206;48.634;9.516;2023-04-15T07:07:15;6.40;;;4.00;;
8337;SDS011;4206;48.634;9.516;2023-04-15T07:09:42;8.13;;;4.00;;
8337;SDS011;4206;48.634;9.516;2023-04-15T07:12:09;6.77;;;2.63;;
8337;SDS011;4206;48.634;9.516;2023-04-15T07:14:36;6.77;;;2.60;;
8337;SDS011;4206;48.634;9.516;2023-04-15T07:17:03;9.03;;;3.10;;
8337;SDS011;4206;48.634;9.516;2023-04-15T07:19:30;6.63;;;2.50;;
8337;SDS011;4206;48.634;9.516;2023-04-15T07:21:57;5.37;;;2.70;;
8337;SDS011;4206;48.634;9.516;2023-04-15T07:24:24;8.07;;;3.20;;
8337;SDS011;4206;48.634;9.516;2023-04-15T07:26:53;6.93;;;2.80;;
8337;SDS011;4206;48.634;9.516;2023-04-15T07:29:25;3.80;;;2.60;;
8337;SDS011;4206;48.634;9.516;2023-04-15T07:31:52;7.37;;;3.50;;
8337;SDS011;4206;48.634;9.516;2023-04-15T07:34:19;17.73;;;7.27;;
8337;SDS011;4206;48.634;9.516;2023-04-15T07:36:46;5.63;;;3.37;;
8337;SDS011;4206;48.634;9.516;2023-04-15T07:39:17;25.97;;;15.17;;
8337;SDS011;4206;48.634;9.516;2023-04-15T07:41:44;14.70;;;4.73;;
8337;SDS011;4206;48.634;9.516;2023-04-15T07:44:11;5.47;;;2.80;;
8337;SDS011;4206;48.634;9.516;2023-04-15T07:46:38;6.33;;;3.30;;
8337;SDS011;4206;48.634;9.516;2023-04-15T07:49:06;3.87;;;3.00;;
8337;SDS011;4206;48.634;9.516;2023-04-15T07:51:32;7.70;;;3.83;;
8337;SDS011;4206;48.634;9.516;2023-04-15T07:53:59;4.87;;;2.90;;
8337;SDS011;4206;48.634;9.516;2023-04-15T07:56:26;6.20;;;3.70;;
8337;SDS011;4206;48.634;9.516;2023-04-15T07:58:53;10.57;;;3.77;;
8337;SDS011;4206;48.634;9.516;2023-04-15T08:01:20;8.93;;;5.27;;
8337;SDS011;4206;48.634;9.516;2023-04-15T08:03:46;5.83;;;3.33;;
8337;SDS011;4206;48.634;9.516;2023-04-15T08:06:13;3.93;;;2.27;;
8337;SDS011;4206;48.634;9.516;2023-04-15T08:08:40;8.20;;;3.43;;
8337;SDS011;4206;48.634;9.516;2023-04-15T08:11:08;7.23;;;2.97;;
8337;SDS011;4206;48.634;9.516;2023-04-15T08:13:35;6.97;;;3.10;;
8337;SDS011;4206;48.634;9.516;2023-04-15T08:18:45;5.73;;;3.00;;
8337;SDS011;4206;48.634;9.516;2023-04-15T08:21:12;3.17;;;2.10;;
8337;SDS011;4206;48.634;9.516;2023-04-15T08:23:40;4.53;;;2.30;;
8337;SDS011;4206;48.634;9.516;2023-04-15T08:26:07;3.50;;;2.10;;
8337;SDS011;4206;48.634;9.516;2023-04-15T08:28:38;4.93;;;2.70;;
8337;SDS011;4206;48.634;9.516;2023-04-15T08:31:07;4.90;;;2.50;;
8337;SDS011;4206;48.634;9.516;2023-04-15T08:33:34;3.60;;;2.50;;
8337;SDS011;4206;48.634;9.516;2023-04-15T08:36:02;5.07;;;2.43;;
8337;SDS011;4206;48.634;9.516;2023-04-15T08:38:29;4.90;;;2.47;;
8337;SDS011;4206;48.634;9.516;2023-04-15T08:40:57;8.37;;;2.63;;
8337;SDS011;4206;48.634;9.516;2023-04-15T08:43:27;4.37;;;2.47;;
8337;SDS011;4206;48.634;9.516;2023-04-15T08:45:59;8.20;;;2.60;;
8337;SDS011;4206;48.634;9.516;2023-04-15T08:48:28;4.23;;;2.03;;
8337;SDS011;4206;48.634;9.516;2023-04-15T08:50:57;6.03;;;2.10;;
8337;SDS011;4206;48.634;9.516;2023-04-15T08:53:25;9.63;;;2.50;;
8337;SDS011;4206;48.634;9.516;2023-04-15T08:55:54;3.63;;;2.43;;
8337;SDS011;4206;48.634;9.516;2023-04-15T08:58:23;5.70;;;2.97;;
8337;SDS011;4206;48.634;9.516;2023-04-15T09:00:51;3.03;;;2.27;;
8337;SDS011;4206;48.634;9.516;2023-04-15T09:03:18;4.30;;;2.63;;
8337;SDS011;4206;48.634;9.516;2023-04-15T09:05:48;5.90;;;2.33;;
8337;SDS011;4206;48.634;9.516;2023-04-15T09:08:18;5.50;;;2.50;;
8337;SDS011;4206;48.634;9.516;2023-04-15T09:10:45;9.03;;;3.00;;
8337;SDS011;4206;48.634;9.516;2023-04-15T09:13:12;5.00;;;2.53;;
8337;SDS011;4206;48.634;9.516;2023-04-15T09:15:39;4.70;;;2.50;;
8337;SDS011;4206;48.634;9.516;2023-04-15T09:18:06;6.80;;;2.60;;
8337;SDS011;4206;48.634;9.516;2023-04-15T09:20:41;4.33;;;2.33;;
8337;SDS011;4206;48.634;9.516;2023-04-15T09:23:15;4.53;;;1.90;;
8337;SDS011;4206;48.634;9.516;2023-04-15T09:25:42;3.87;;;2.93;;
8337;SDS011;4206;48.634;9.516;2023-04-15T09:28:10;5.60;;;2.40;;
8337;SDS011;4206;48.634;9.516;2023-04-15T09:30:37;5.70;;;2.47;;
8337;SDS011;4206;48.634;9.516;2023-04-15T09:33:04;4.83;;;2.10;;
8337;SDS011;4206;48.634;9.516;2023-04-15T09:35:34;6.00;;;4.00;;
8337;SDS011;4206;48.634;9.516;2023-04-15T09:38:02;5.20;;;2.73;;
8337;SDS011;4206;48.634;9.516;2023-04-15T09:43:07;3.23;;;2.20;;
8337;SDS011;4206;48.634;9.516;2023-04-15T09:45:35;3.50;;;1.90;;
8337;SDS011;4206;48.634;9.516;2023-04-15T09:48:14;4.60;;;1.57;;
8337;SDS011;4206;48.634;9.516;2023-04-15T09:50:44;4.10;;;1.70;;
8337;SDS011;4206;48.634;9.516;2023-04-15T09:53:15;7.60;;;1.90;;
8337;SDS011;4206;48.634;9.516;2023-04-15T09:55:51;8.20;;;2.07;;
8337;SDS011;4206;48.634;9.516;2023-04-15T09:58:20;7.70;;;1.87;;
8337;SDS011;4206;48.634;9.516;2023-04-15T10:00:49;2.50;;;1.33;;
8337;SDS011;4206;48.634;9.516;2023-04-15T10:03:19;4.23;;;1.17;;
8337;SDS011;4206;48.634;9.516;2023-04-15T10:05:47;3.57;;;1.73;;
8337;SDS011;4206;48.634;9.516;2023-04-15T10:08:17;3.87;;;1.37;;
8337;SDS011;4206;48.634;9.516;2023-04-15T10:10:47;2.90;;;1.70;;
8337;SDS011;4206;48.634;9.516;2023-04-15T10:13:16;9.03;;;2.70;;
8337;SDS011;4206;48.634;9.516;2023-04-15T10:15:50;8.43;;;1.60;;
8337;SDS011;4206;48.634;9.516;2023-04-15T10:18:22;3.77;;;2.10;;
8337;SDS011;4206;48.634;9.516;2023-04-15T10:20:52;4.30;;;1.50;;
8337;SDS011;4206;48.634;9.516;2023-04-15T10:23:19;5.03;;;1.70;;
8337;SDS011;4206;48.634;9.516;2023-04-15T10:25:48;3.63;;;1.47;;
8337;SDS011;4206;48.634;9.516;2023-04-15T10:28:16;2.20;;;1.47;;
8337;SDS011;4206;48.634;9.516;2023-04-15T10:30:44;2.20;;;1.43;;
8337;SDS011;4206;48.634;9.516;2023-04-15T10:33:13;4.00;;;1.17;;
8337;SDS011;4206;48.634;9.516;2023-04-15T10:35:42;4.70;;;1.53;;
8337;SDS011;4206;48.634;9.516;2023-04-15T10:41:16;6.27;;;1.57;;
8337;SDS011;4206;48.634;9.516;2023-04-15T10:43:49;4.77;;;1.63;;
8337;SDS011;4206;48.634;9.516;2023-04-15T10:51:39;2.93;;;1.30;;
8337;SDS011;4206;48.634;9.516;2023-04-15T10:54:11;5.00;;;1.80;;
8337;SDS011;4206;48.634;9.516;2023-04-15T10:56:40;6.03;;;1.70;;
8337;SDS011;4206;48.634;9.516;2023-04-15T10:59:09;2.50;;;1.40;;
8337;SDS011;4206;48.634;9.516;2023-04-15T11:07:36;4.37;;;1.70;;
8337;SDS011;4206;48.634;9.516;2023-04-15T11:12:50;2.97;;;1.50;;
8337;SDS011;4206;48.634;9.516;2023-04-15T11:20:38;6.20;;;1.60;;
8337;SDS011;4206;48.634;9.516;2023-04-15T11:23:06;5.50;;;2.30;;
8337;SDS011;4206;48.634;9.516;2023-04-15T11:25:41;5.73;;;1.60;;
8337;SDS011;4206;48.634;9.516;2023-04-15T11:28:09;5.07;;;1.80;;
8337;SDS011;4206;48.634;9.516;2023-04-15T11:30:38;7.07;;;1.70;;
8337;SDS011;4206;48.634;9.516;2023-04-15T11:33:07;5.23;;;1.67;;
8337;SDS011;4206;48.634;9.516;2023-04-15T11:35:35;5.80;;;1.87;;
8337;SDS011;4206;48.634;9.516;2023-04-15T11:38:03;5.03;;;2.10;;
8337;SDS011;4206;48.634;9.516;2023-04-15T11:40:30;4.43;;;2.00;;
8337;SDS011;4206;48.634;9.516;2023-04-15T11:48:22;8.00;;;2.53;;
8337;SDS011;4206;48.634;9.516;2023-04-15T11:50:53;7.40;;;2.60;;
8337;SDS011;4206;48.634;9.516;2023-04-15T11:53:21;3.57;;;2.23;;
8337;SDS011;4206;48.634;9.516;2023-04-15T11:55:50;6.50;;;2.17;;
8337;SDS011;4206;48.634;9.516;2023-04-15T11:58:24;7.53;;;2.53;;
8337;SDS011;4206;48.634;9.516;2023-04-15T12:00:53;6.57;;;2.10;;
8337;SDS011;4206;48.634;9.516;2023-04-15T12:06:14;6.67;;;2.33;;
8337;SDS011;4206;48.634;9.516;2023-04-15T12:11:30;5.37;;;2.10;;
8337;SDS011;4206;48.634;9.516;2023-04-15T12:14:03;4.67;;;2.30;;
8337;SDS011;4206;48.634;9.516;2023-04-15T12:16:35;5.50;;;2.30;;
8337;SDS011;4206;48.634;9.516;2023-04-15T12:19:16;3.80;;;1.90;;
8337;SDS011;4206;48.634;9.516;2023-04-15T12:21:45;4.87;;;2.30;;
8337;SDS011;4206;48.634;9.516;2023-04-15T12:24:13;2.83;;;1.93;;
8337;SDS011;4206;48.634;9.516;2023-04-15T12:26:44;3.60;;;1.90;;
8337;SDS011;4206;48.634;9.516;2023-04-15T12:29:24;3.97;;;1.83;;
8337;SDS011;4206;48.634;9.516;2023-04-15T12:31:54;4.40;;;2.40;;
8337;SDS011;4206;48.634;9.516;2023-04-15T12:34:27;2.77;;;1.80;;
8337;SDS011;4206;48.634;9.516;2023-04-15T12:36:57;4.03;;;2.13;;
8337;SDS011;4206;48.634;9.516;2023-04-15T12:39:26;3.70;;;2.27;;
8337;SDS011;4206;48.634;9.516;2023-04-15T12:41:56;2.40;;;2.03;;
8337;SDS011;4206;48.634;9.516;2023-04-15T12:44:23;7.30;;;2.17;;
8337;SDS011;4206;48.634;9.516;2023-04-15T12:46:51;6.10;;;2.60;;
8337;SDS011;4206;48.634;9.516;2023-04-15T12:49:22;4.00;;;2.27;;
8337;SDS011;4206;48.634;9.516;2023-04-15T12:51:50;3.53;;;2.27;;
8337;SDS011;4206;48.634;9.516;2023-04-15T12:54:19;3.83;;;2.33;;
8337;SDS011;4206;48.634;9.516;2023-04-15T12:56:47;6.30;;;2.20;;
8337;SDS011;4206;48.634;9.516;2023-04-15T12:59:15;3.43;;;2.20;;
8337;SDS011;4206;48.634;9.516;2023-04-15T13:01:44;5.50;;;3.07;;
8337;SDS011;4206;48.634;9.516;2023-04-15T13:04:12;2.57;;;2.07;;
8337;SDS011;4206;48.634;9.516;2023-04-15T13:06:40;2.93;;;2.07;;
8337;SDS011;4206;48.634;9.516;2023-04-15T13:09:07;3.77;;;2.10;;
8337;SDS011;4206;48.634;9.516;2023-04-15T13:11:34;7.53;;;2.83;;
8337;SDS011;4206;48.634;9.516;2023-04-15T13:14:02;3.67;;;2.73;;
8337;SDS011;4206;48.634;9.516;2023-04-15T13:16:31;5.53;;;1.93;;
8337;SDS011;4206;48.634;9.516;2023-04-15T13:18:59;6.87;;;2.17;;
8337;SDS011;4206;48.634;9.516;2023-04-15T13:21:26;4.53;;;2.00;;
8337;SDS011;4206;48.634;9.516;2023-04-15T13:23:53;3.80;;;1.80;;
8337;SDS011;4206;48.634;9.516;2023-04-15T13:26:21;6.03;;;2.20;;
8337;SDS011;4206;48.634;9.516;2023-04-15T13:28:48;2.70;;;1.60;;
8337;SDS011;4206;48.634;9.516;2023-04-15T13:31:14;4.00;;;1.90;;
8337;SDS011;4206;48.634;9.516;2023-04-15T13:33:41;2.97;;;1.80;;
8337;SDS011;4206;48.634;9.516;2023-04-15T13:36:08;2.87;;;1.33;;
8337;SDS011;4206;48.634;9.516;2023-04-15T13:38:35;3.10;;;1.77;;
8337;SDS011;4206;48.634;9.516;2023-04-15T13:41:02;2.60;;;1.20;;
8337;SDS011;4206;48.634;9.516;2023-04-15T13:43:29;2.30;;;1.73;;
8337;SDS011;4206;48.634;9.516;2023-04-15T13:45:56;4.27;;;1.23;;
8337;SDS011;4206;48.634;9.516;2023-04-15T13:48:23;6.13;;;1.90;;
8337;SDS011;4206;48.634;9.516;2023-04-15T13:50:50;3.03;;;1.73;;
8337;SDS011;4206;48.634;9.516;2023-04-15T13:53:17;4.50;;;1.80;;
8337;SDS011;4206;48.634;9.516;2023-04-15T13:55:44;1.33;;;1.03;;
8337;SDS011;4206;48.634;9.516;2023-04-15T13:58:11;5.10;;;1.60;;
8337;SDS011;4206;48.634;9.516;2023-04-15T14:00:38;4.90;;;2.03;;
8337;SDS011;4206;48.634;9.516;2023-04-15T14:03:05;1.83;;;0.90;;
8337;SDS011;4206;48.634;9.516;2023-04-15T14:05:32;1.30;;;0.80;;
8337;SDS011;4206;48.634;9.516;2023-04-15T14:07:59;1.30;;;0.67;;
8337;SDS011;4206;48.634;9.516;2023-04-15T14:10:26;2.20;;;0.87;;
8337;SDS011;4206;48.634;9.516;2023-04-15T14:12:53;1.67;;;0.80;;
8337;SDS011;4206;48.634;9.516;2023-04-15T14:15:20;2.03;;;0.90;;
8337;SDS011;4206;48.634;9.516;2023-04-15T14:17:47;2.40;;;0.83;;
8337;SDS011;4206;48.634;9.516;2023-04-15T14:20:14;4.97;;;0.80;;
8337;SDS011;4206;48.634;9.516;2023-04-15T14:22:42;2.50;;;0.90;;
8337;SDS011;4206;48.634;9.516;2023-04-15T14:25:09;1.10;;;0.67;;
8337;SDS011;4206;48.634;9.516;2023-04-15T14:27:48;3.13;;;1.20;;
8337;SDS011;4206;48.634;9.516;2023-04-15T14:30:15;3.17;;;2.03;;
8337;SDS011;4206;48.634;9.516;2023-04-15T14:32:42;1.40;;;1.00;;
8337;SDS011;4206;48.634;9.516;2023-04-15T14:35:09;4.20;;;2.20;;
8337;SDS011;4206;48.634;9.516;2023-04-15T14:37:36;3.13;;;1.70;;
8337;SDS011;4206;48.634;9.516;2023-04-15T14:40:03;4.87;;;2.90;;
8337;SDS011;4206;48.634;9.516;2023-04-15T14:42:31;3.60;;;1.23;;
8337;SDS011;4206;48.634;9.516;2023-04-15T14:44:57;3.03;;;2.60;;
8337;SDS011;4206;48.634;9.516;2023-04-15T14:47:24;4.07;;;0.80;;
8337;SDS011;4206;48.634;9.516;2023-04-15T14:49:51;1.30;;;0.63;;
8337;SDS011;4206;48.634;9.516;2023-04-15T14:52:18;2.30;;;0.80;;
8337;SDS011;4206;48.634;9.516;2023-04-15T14:54:45;3.10;;;1.43;;
8337;SDS011;4206;48.634;9.516;2023-04-15T14:57:12;2.40;;;1.13;;
8337;SDS011;4206;48.634;9.516;2023-04-15T14:59:39;3.40;;;1.30;;
8337;SDS011;4206;48.634;9.516;2023-04-15T15:02:06;2.80;;;1.03;;
8337;SDS011;4206;48.634;9.516;2023-04-15T15:04:34;2.10;;;0.80;;
8337;SDS011;4206;48.634;9.516;2023-04-15T15:07:01;4.10;;;1.40;;
8337;SDS011;4206;48.634;9.516;2023-04-15T15:09:28;2.90;;;1.57;;
8337;SDS011;4206;48.634;9.516;2023-04-15T15:11:55;5.17;;;1.30;;
8337;SDS011;4206;48.634;9.516;2023-04-15T15:14:23;2.87;;;0.90;;
8337;SDS011;4206;48.634;9.516;2023-04-15T15:16:49;1.93;;;0.80;;
8337;SDS011;4206;48.634;9.516;2023-04-15T15:19:16;3.57;;;2.40;;
8337;SDS011;4206;48.634;9.516;2023-04-15T15:21:43;1.73;;;1.23;;
8337;SDS011;4206;48.634;9.516;2023-04-15T15:24:10;3.07;;;1.80;;
8337;SDS011;4206;48.634;9.516;2023-04-15T15:26:37;4.30;;;2.40;;
8337;SDS011;4206;48.634;9.516;2023-04-15T15:29:05;4.30;;;1.17;;
8337;SDS011;4206;48.634;9.516;2023-04-15T15:31:33;1.53;;;1.10;;
8337;SDS011;4206;48.634;9.516;2023-04-15T15:34:00;5.60;;;1.00;;
8337;SDS011;4206;48.634;9.516;2023-04-15T15:36:28;1.97;;;1.10;;
8337;SDS011;4206;48.634;9.516;2023-04-15T15:38:56;1.37;;;0.80;;
8337;SDS011;4206;48.634;9.516;2023-04-15T15:41:25;5.27;;;0.83;;
8337;SDS011;4206;48.634;9.516;2023-04-15T15:43:52;3.37;;;1.13;;
8337;SDS011;4206;48.634;9.516;2023-04-15T15:46:19;2.30;;;0.90;;
8337;SDS011;4206;48.634;9.516;2023-04-15T15:48:46;1.60;;;1.43;;
8337;SDS011;4206;48.634;9.516;2023-04-15T15:51:13;6.83;;;1.27;;
8337;SDS011;4206;48.634;9.516;2023-04-15T15:53:39;3.20;;;1.27;;
8337;SDS011;4206;48.634;9.516;2023-04-15T15:56:06;1.80;;;0.77;;
8337;SDS011;4206;48.634;9.516;2023-04-15T15:58:33;3.47;;;1.07;;
8337;SDS011;4206;48.634;9.516;2023-04-15T16:01:00;2.37;;;1.20;;
8337;SDS011;4206;48.634;9.516;2023-04-15T16:03:27;3.63;;;1.20;;
8337;SDS011;4206;48.634;9.516;2023-04-15T16:05:54;4.60;;;2.30;;
8337;SDS011;4206;48.634;9.516;2023-04-15T16:08:21;3.50;;;2.00;;
8337;SDS011;4206;48.634;9.516;2023-04-15T16:10:48;5.33;;;2.23;;
8337;SDS011;4206;48.634;9.516;2023-04-15T16:13:15;3.20;;;1.87;;
8337;SDS011;4206;48.634;9.516;2023-04-15T16:15:42;1.30;;;1.20;;
8337;SDS011;4206;48.634;9.516;2023-04-15T16:18:08;2.10;;;1.10;;
8337;SDS011;4206;48.634;9.516;2023-04-15T16:20:36;3.90;;;1.30;;
8337;SDS011;4206;48.634;9.516;2023-04-15T16:23:07;1.77;;;1.30;;
8337;SDS011;4206;48.634;9.516;2023-04-15T16:25:39;2.80;;;1.37;;
8337;SDS011;4206;48.634;9.516;2023-04-15T16:28:07;1.90;;;1.17;;
8337;SDS011;4206;48.634;9.516;2023-04-15T16:30:50;1.83;;;1.57;;
8337;SDS011;4206;48.634;9.516;2023-04-15T16:33:17;2.03;;;1.50;;
8337;SDS011;4206;48.634;9.516;2023-04-15T16:35:44;1.90;;;1.40;;
8337;SDS011;4206;48.634;9.516;2023-04-15T16:38:11;1.73;;;1.33;;
8337;SDS011;4206;48.634;9.516;2023-04-15T16:40:38;6.20;;;2.70;;
8337;SDS011;4206;48.634;9.516;2023-04-15T16:43:04;7.63;;;3.60;;
8337;SDS011;4206;48.634;9.516;2023-04-15T16:45:33;7.23;;;3.77;;
8337;SDS011;4206;48.634;9.516;2023-04-15T16:48:00;2.77;;;1.60;;
8337;SDS011;4206;48.634;9.516;2023-04-15T16:50:27;1.70;;;1.60;;
8337;SDS011;4206;48.634;9.516;2023-04-15T16:52:54;2.73;;;1.63;;
8337;SDS011;4206;48.634;9.516;2023-04-15T16:55:21;1.90;;;1.47;;
8337;SDS011;4206;48.634;9.516;2023-04-15T16:57:47;5.37;;;1.53;;